MDT,Max TemperatureF,Mean TemperatureF,Min TemperatureF,Max Dew PointF,MeanDew PointF,Min DewpointF,Max Humidity, Mean Humidity, Min Humidity, Max Sea Level PressureIn, Mean Sea Level PressureIn, Min Sea Level PressureIn, Max VisibilityMiles, Mean VisibilityMiles, Min VisibilityMiles, Max Wind SpeedMPH, Mean Wind SpeedMPH, Max Gust SpeedMPH,PrecipitationIn, CloudCover, Events, WindDirDegrees
2014-3-1,40,36,32,37,33,30,100,88,76,29.96,29.90,29.82,10,7,0,21,5,26,0.59,8,Fog-Rain-Snow,74
2014-3-2,50,40,30,38,31,21,100,68,36,30.17,29.94,29.86,10,5,0,26,7,33,0.29,6,Fog-Rain-Snow,27
2014-3-3,50,38,26,32,28,25,92,69,46,30.23,30.14,30.06,10,10,10,17,5,22,0.00,1,,274
2014-3-4,49,37,25,36,30,23,92,69,46,30.11,30.01,29.90,10,10,6,23,4,27,0.03,3,Rain,256
2014-3-5,53,41,29,34,30,22,100,68,36,30.29,30.13,29.98,10,5,0,16,6,19,0.00,4,Fog,90
2014-3-6,56,40,23,28,23,17,92,57,22,30.30,30.11,29.91,10,10,10,17,5,21,0.00,2,,356
2014-3-7,48,38,28,39,28,18,85,63,40,30.00,29.90,29.85,10,9,2,26,8,34,0.08,4,Rain-Thunderstorm,296
2014-3-8,49,38,26,25,21,15,75,52,28,30.40,30.23,30.04,10,10,10,18,5,25,0.00,3,,65
2014-3-9,58,39,19,25,20,14,92,59,25,30.48,30.35,30.23,10,10,10,15,5,19,0.00,0,,194
2014-3-10,65,45,25,25,17,-1,85,48,10,30.26,30.07,29.87,10,10,10,22,7,28,0.00,0,,318
2014-3-11,50,35,19,18,10,0,58,36,13,30.13,29.91,29.75,10,10,10,29,11,37,0.00,0,,273
2014-3-12,50,34,17,16,10,-7,73,42,10,30.37,30.28,30.16,10,10,10,15,6,19,0.00,0,,45
2014-3-13,55,37,19,26,16,11,72,45,21,30.29,30.11,29.94,10,10,10,15,3,24,0.00,2,,312
2014-3-14,55,41,27,30,26,23,85,59,32,30.08,30.01,29.93,10,10,10,21,5,24,T,4,,334
2014-3-15,50,37,23,30,14,2,92,55,17,30.27,30.09,29.98,10,10,10,38,12,51,0.00,1,,345
2014-3-16,59,36,13,17,8,4,61,38,14,30.42,30.27,30.11,10,10,10,17,5,22,0.00,0,,118
2014-3-17,62,42,21,17,9,-4,74,41,7,30.12,29.77,29.47,10,10,9,38,13,51,0.00,0,,331
2014-3-18,48,37,25,6,4,0,39,28,17,30.05,29.78,29.50,10,10,10,26,14,34,0.00,0,,275
2014-3-19,51,31,10,10,5,0,73,44,14,30.32,30.23,30.06,10,10,10,14,4,19,0.00,0,,319
2014-3-20,58,35,11,9,3,-6,67,38,8,30.33,30.17,30.01,10,10,10,18,4,25,0.00,0,,19
2014-3-21,61,39,17,9,3,-3,50,29,8,30.03,29.96,29.88,10,10,10,22,6,29,0.00,0,,329
2014-3-22,55,38,20,24,14,7,57,37,16,30.13,30.02,29.93,10,10,10,30,8,41,0.00,2,,334
2014-3-23,58,37,16,17,10,1,74,45,15,30.28,30.16,30.09,10,10,10,23,6,40,0.00,1,,277
2014-3-24,63,41,18,12,4,-3,62,35,7,30.24,30.14,30.04,10,10,10,29,6,38,0.00,0,,254
2014-3-25,63,41,19,21,8,-2,56,32,7,30.21,30.03,29.81,10,10,10,24,5,31,0.00,1,,205
2014-3-26,55,44,33,32,26,8,96,57,17,29.78,29.66,29.45,10,9,2,44,12,53,0.01,7,Rain-Snow,228
2014-3-27,53,43,32,33,24,5,100,58,15,29.93,29.76,29.63,10,10,7,31,14,39,T,5,Snow,250
2014-3-28,55,38,20,21,11,4,77,45,13,30.25,30.08,29.90,10,10,10,26,8,35,0.00,0,,305
2014-3-29,60,40,19,14,10,5,62,37,12,30.36,30.21,30.06,10,10,10,18,4,28,0.00,0,,243
2014-3-30,60,44,27,21,15,3,53,32,10,30.05,29.89,29.64,10,9,4,44,11,61,0.00,2,,12
2014-3-31,55,39,23,20,7,-8,68,39,9,30.04,29.96,29.91,10,10,10,24,9,33,0.00,0,,257